Terminal Aerodrome Forecast
Issued by NWS

Home | Current Version | Previous Version | Text Only | Print | Product List | Glossary On
Versions: 1 2 3 4 5 6 7 8 9 10 11 12 13 14 15
000
FTUS45 KRIW 302330
TAFLND
TAF
KLND 302330Z 0100/0124 16010KT P6SM SCT090 BKN150
     FM010200 29009KT P6SM BKN110
     FM010700 26006KT P6SM VCSH BKN035
     FM011100 28006KT P6SM BKN035
     FM011500 03006KT P6SM SCT050=

USA.gov is the U.S. government's official web portal to all federal, state and local government web resources and services.